createdAt,value
2016-12-21T00:00:14.157Z,0
2016-12-21T00:00:54.704Z,0
2016-12-21T00:01:35.227Z,0
2016-12-21T00:02:15.758Z,0
2016-12-21T00:02:56.303Z,0
2016-12-21T00:03:36.842Z,0
2016-12-21T00:04:17.379Z,0
2016-12-21T00:04:57.909Z,0
2016-12-21T00:05:38.444Z,0
2016-12-21T00:06:18.974Z,0
2016-12-21T00:06:59.505Z,0
2016-12-21T00:07:40.039Z,0
2016-12-21T00:08:20.553Z,0
2016-12-21T00:09:01.080Z,0
2016-12-21T00:09:41.620Z,0
2016-12-21T00:10:22.152Z,0
2016-12-21T00:11:02.685Z,0
2016-12-21T00:11:43.205Z,0
2016-12-21T00:12:23.743Z,0
2016-12-21T00:13:04.273Z,0
2016-12-21T00:13:44.810Z,0
2016-12-21T00:14:25.347Z,0
2016-12-21T00:15:05.888Z,0
2016-12-21T00:15:46.425Z,0
2016-12-21T00:16:26.955Z,0
2016-12-21T00:17:07.495Z,0
2016-12-21T00:17:48.015Z,0
2016-12-21T00:18:28.543Z,0
2016-12-21T00:19:09.082Z,0
2016-12-21T00:19:49.613Z,0
2016-12-21T00:20:30.145Z,0
2016-12-21T00:21:10.674Z,0
2016-12-21T00:21:51.197Z,0
2016-12-21T00:22:31.728Z,0
2016-12-21T00:23:12.259Z,0
2016-12-21T00:23:52.801Z,0
2016-12-21T00:24:33.324Z,0
2016-12-21T00:25:13.854Z,0
2016-12-21T00:25:54.402Z,0
2016-12-21T00:26:34.936Z,0
2016-12-21T00:27:15.474Z,0
2016-12-21T00:27:56.106Z,0
2016-12-21T00:28:36.647Z,0
2016-12-21T00:29:17.173Z,0
2016-12-21T00:29:57.723Z,0
2016-12-21T00:30:38.251Z,0
2016-12-21T00:31:18.791Z,0
2016-12-21T00:31:59.315Z,0
2016-12-21T00:32:39.854Z,0
2016-12-21T00:33:20.375Z,0
2016-12-21T00:34:00.910Z,0
2016-12-21T00:34:41.446Z,0
2016-12-21T00:35:21.991Z,0
2016-12-21T00:36:02.505Z,0
2016-12-21T00:36:43.036Z,0
2016-12-21T00:37:23.568Z,0
2016-12-21T00:38:04.104Z,0
2016-12-21T00:38:44.640Z,0
2016-12-21T00:39:25.174Z,0
2016-12-21T00:40:05.704Z,0
2016-12-21T00:40:46.238Z,0
2016-12-21T00:41:26.773Z,0
2016-12-21T00:42:07.313Z,0
2016-12-21T00:42:47.851Z,0
2016-12-21T00:43:28.394Z,0
2016-12-21T00:44:08.934Z,0
2016-12-21T00:44:49.464Z,0
2016-12-21T00:45:30.005Z,0
2016-12-21T00:46:10.539Z,0
2016-12-21T00:46:51.064Z,0
2016-12-21T00:47:31.602Z,0
2016-12-21T00:48:12.127Z,0
2016-12-21T00:48:52.677Z,0
2016-12-21T00:49:33.219Z,0
2016-12-21T00:50:13.760Z,0
2016-12-21T00:50:54.286Z,0
2016-12-21T00:51:34.820Z,0
2016-12-21T00:52:15.361Z,0
2016-12-21T00:52:55.909Z,0
2016-12-21T00:53:36.442Z,0
2016-12-21T00:54:16.974Z,0
2016-12-21T00:54:57.507Z,0
2016-12-21T00:55:38.034Z,0
2016-12-21T00:56:18.568Z,0
2016-12-21T00:56:59.086Z,0
2016-12-21T00:57:39.618Z,0
2016-12-21T00:58:20.156Z,0
2016-12-21T00:59:00.677Z,0
2016-12-21T00:59:41.216Z,0
2016-12-21T01:00:21.748Z,0
2016-12-21T01:01:02.297Z,0
2016-12-21T01:01:42.829Z,0
2016-12-21T01:02:23.354Z,0
2016-12-21T01:03:03.880Z,0
2016-12-21T01:03:44.411Z,0
2016-12-21T01:04:24.932Z,0
2016-12-21T01:05:05.473Z,0
2016-12-21T01:05:46.004Z,0
2016-12-21T01:06:26.540Z,0
2016-12-21T01:07:07.065Z,0
2016-12-21T01:07:47.603Z,0
2016-12-21T01:08:28.135Z,0
2016-12-21T01:09:08.671Z,0
2016-12-21T01:09:49.199Z,0
2016-12-21T01:10:29.727Z,0
2016-12-21T01:11:10.267Z,0
2016-12-21T01:11:50.811Z,0
2016-12-21T01:12:31.345Z,0
2016-12-21T01:13:11.874Z,0
2016-12-21T01:13:52.400Z,0
2016-12-21T01:14:32.938Z,0
2016-12-21T01:15:13.473Z,0
2016-12-21T01:15:54.003Z,0
2016-12-21T01:16:34.546Z,0
2016-12-21T01:17:15.074Z,0
2016-12-21T01:17:55.595Z,0
2016-12-21T01:18:36.112Z,0
2016-12-21T01:19:16.644Z,0
2016-12-21T01:19:57.165Z,0
2016-12-21T01:20:37.701Z,0
2016-12-21T01:21:18.242Z,0
2016-12-21T01:21:58.777Z,0
2016-12-21T01:22:39.315Z,0
2016-12-21T01:23:19.845Z,0
2016-12-21T01:24:00.377Z,0
2016-12-21T01:24:40.894Z,0
2016-12-21T01:25:21.427Z,0
2016-12-21T01:26:01.967Z,0
2016-12-21T01:26:42.513Z,0
2016-12-21T01:27:23.048Z,0
2016-12-21T01:28:03.577Z,0
2016-12-21T01:28:44.110Z,0
2016-12-21T01:29:24.647Z,0
2016-12-21T01:30:05.181Z,0
2016-12-21T01:30:45.712Z,0
2016-12-21T01:31:26.254Z,0
2016-12-21T01:32:06.780Z,0
2016-12-21T01:32:47.316Z,0
2016-12-21T01:33:27.847Z,0
2016-12-21T01:34:08.383Z,0
2016-12-21T01:34:48.912Z,0
2016-12-21T01:35:29.448Z,0
2016-12-21T01:36:09.985Z,0
2016-12-21T01:36:50.521Z,0
2016-12-21T01:37:31.052Z,0
2016-12-21T01:38:11.594Z,0
2016-12-21T01:38:52.144Z,0
2016-12-21T01:39:32.682Z,0
2016-12-21T01:40:13.213Z,0
2016-12-21T01:40:53.737Z,0
2016-12-21T01:41:34.280Z,0
2016-12-21T01:42:14.815Z,0
2016-12-21T01:42:55.356Z,0
2016-12-21T01:43:35.878Z,0
2016-12-21T01:44:16.409Z,0
2016-12-21T01:44:56.942Z,0
2016-12-21T01:45:37.477Z,0
2016-12-21T01:46:18.003Z,0
2016-12-21T01:46:58.544Z,0
2016-12-21T01:47:39.080Z,0
2016-12-21T01:48:19.612Z,0
2016-12-21T01:49:00.133Z,0
2016-12-21T01:49:40.679Z,0
2016-12-21T01:50:21.219Z,0
2016-12-21T01:51:01.744Z,0
2016-12-21T01:51:42.276Z,0
2016-12-21T01:52:22.816Z,0
2016-12-21T01:53:03.342Z,0
2016-12-21T01:53:43.871Z,0
2016-12-21T01:54:24.417Z,0
2016-12-21T01:55:04.945Z,0
2016-12-21T01:55:45.464Z,0
2016-12-21T01:56:26.006Z,0
2016-12-21T01:57:06.546Z,0
2016-12-21T01:57:47.091Z,0
2016-12-21T01:58:27.618Z,0
2016-12-21T01:59:08.144Z,0
2016-12-21T01:59:48.671Z,0
2016-12-21T02:00:29.204Z,0
2016-12-21T02:01:09.734Z,0
2016-12-21T02:01:50.272Z,0
2016-12-21T02:02:30.794Z,0
2016-12-21T02:03:11.340Z,0
2016-12-21T02:03:51.866Z,0
2016-12-21T02:04:32.407Z,0
2016-12-21T02:05:12.942Z,0
2016-12-21T02:05:53.470Z,0
2016-12-21T02:06:34.004Z,0
2016-12-21T02:07:14.533Z,0
2016-12-21T02:07:55.059Z,0
2016-12-21T02:08:35.599Z,0
2016-12-21T02:09:16.139Z,0
2016-12-21T02:09:56.681Z,0
2016-12-21T02:10:37.223Z,0
2016-12-21T02:11:17.765Z,0
2016-12-21T02:11:58.302Z,0
2016-12-21T02:12:38.841Z,0
2016-12-21T02:13:19.365Z,0
2016-12-21T02:13:59.906Z,0
2016-12-21T02:14:40.429Z,0
2016-12-21T02:15:20.967Z,0
2016-12-21T02:16:01.497Z,0
2016-12-21T02:16:42.039Z,0
2016-12-21T02:17:22.569Z,0
2016-12-21T02:18:03.107Z,0
2016-12-21T02:18:43.638Z,0
2016-12-21T02:19:24.171Z,0
2016-12-21T02:20:04.704Z,0
2016-12-21T02:20:45.239Z,0
2016-12-21T02:21:25.770Z,0
2016-12-21T02:22:06.309Z,0
2016-12-21T02:22:46.836Z,0
2016-12-21T02:23:27.371Z,0
2016-12-21T02:24:07.901Z,0
2016-12-21T02:24:48.494Z,0
2016-12-21T02:25:29.027Z,0
2016-12-21T02:26:09.548Z,0
2016-12-21T02:26:50.084Z,0
2016-12-21T02:27:30.611Z,0
2016-12-21T02:28:11.136Z,0
2016-12-21T02:28:51.672Z,0
2016-12-21T02:29:32.201Z,0
2016-12-21T02:30:12.712Z,0
2016-12-21T02:30:53.250Z,0
2016-12-21T02:31:33.776Z,0
2016-12-21T02:32:14.301Z,0
2016-12-21T02:32:54.827Z,0
2016-12-21T02:33:35.360Z,0
2016-12-21T02:34:15.895Z,0
2016-12-21T02:34:56.420Z,0
2016-12-21T02:35:36.949Z,0
2016-12-21T02:36:17.486Z,0
2016-12-21T02:36:58.016Z,0
2016-12-21T02:37:38.553Z,0
2016-12-21T02:38:19.077Z,0
2016-12-21T02:38:59.618Z,0
2016-12-21T02:39:40.153Z,0
2016-12-21T02:40:20.673Z,0
2016-12-21T02:41:01.215Z,0
2016-12-21T02:41:41.756Z,0
2016-12-21T02:42:22.277Z,0
2016-12-21T02:43:02.829Z,0
2016-12-21T02:43:43.359Z,0
2016-12-21T02:44:23.885Z,0
2016-12-21T02:45:04.422Z,0
2016-12-21T02:45:44.958Z,0
2016-12-21T02:46:25.486Z,0
2016-12-21T02:47:06.038Z,0
2016-12-21T02:47:46.552Z,0
2016-12-21T02:48:27.103Z,0
2016-12-21T02:49:07.620Z,0
2016-12-21T02:49:48.152Z,0
2016-12-21T02:50:28.683Z,0
2016-12-21T02:51:09.224Z,0
2016-12-21T02:51:49.753Z,0
2016-12-21T02:52:30.303Z,0
2016-12-21T02:53:10.824Z,0
2016-12-21T02:53:51.361Z,0
2016-12-21T02:54:31.899Z,0
2016-12-21T02:55:12.438Z,0
2016-12-21T02:55:52.974Z,0
2016-12-21T02:56:33.512Z,0
2016-12-21T02:57:14.052Z,0
2016-12-21T02:57:54.576Z,0
2016-12-21T02:58:35.107Z,0
2016-12-21T02:59:15.648Z,0
2016-12-21T02:59:56.179Z,0
2016-12-21T03:00:36.721Z,0
2016-12-21T03:01:17.251Z,0
2016-12-21T03:01:57.791Z,0
2016-12-21T03:02:38.332Z,0
2016-12-21T03:03:18.869Z,0
2016-12-21T03:03:59.417Z,0
2016-12-21T03:04:39.967Z,0
2016-12-21T03:05:20.500Z,0
2016-12-21T03:06:01.036Z,0
2016-12-21T03:06:41.572Z,0
2016-12-21T03:07:22.102Z,0
2016-12-21T03:08:02.647Z,0
2016-12-21T03:08:43.193Z,0
2016-12-21T03:09:23.727Z,0
2016-12-21T03:10:04.268Z,0
2016-12-21T03:10:44.805Z,0
2016-12-21T03:11:25.330Z,0
2016-12-21T03:12:05.872Z,0
2016-12-21T03:12:46.403Z,0
2016-12-21T03:13:26.954Z,0
2016-12-21T03:14:07.475Z,0
2016-12-21T03:14:48.014Z,0
2016-12-21T03:15:28.571Z,0
2016-12-21T03:16:09.110Z,0
2016-12-21T03:16:49.633Z,0
2016-12-21T03:17:30.176Z,0
2016-12-21T03:18:10.701Z,0
2016-12-21T03:18:51.220Z,0
2016-12-21T03:19:31.754Z,0
2016-12-21T03:20:12.294Z,0
2016-12-21T03:20:52.828Z,0
2016-12-21T03:21:33.357Z,0
2016-12-21T03:22:13.897Z,0
2016-12-21T03:22:54.439Z,0
2016-12-21T03:23:34.988Z,0
2016-12-21T03:24:15.514Z,0
2016-12-21T03:24:56.040Z,0
2016-12-21T03:25:36.578Z,0
2016-12-21T03:26:17.104Z,0
2016-12-21T03:26:57.631Z,0
2016-12-21T03:27:38.155Z,0
2016-12-21T03:28:18.680Z,0
2016-12-21T03:28:59.213Z,0
2016-12-21T03:29:39.739Z,0
2016-12-21T03:30:20.279Z,0
2016-12-21T03:31:00.816Z,0
2016-12-21T03:31:41.341Z,0
2016-12-21T03:32:21.875Z,0
2016-12-21T03:33:02.411Z,0
2016-12-21T03:33:42.950Z,0
2016-12-21T03:34:23.475Z,0
2016-12-21T03:35:04.013Z,0
2016-12-21T03:35:44.549Z,0
2016-12-21T03:36:25.136Z,0
2016-12-21T03:37:05.661Z,0
2016-12-21T03:37:46.199Z,0
2016-12-21T03:38:26.730Z,0
2016-12-21T03:39:07.276Z,0
2016-12-21T03:39:47.816Z,0
2016-12-21T03:40:28.349Z,0
2016-12-21T03:41:08.889Z,0
2016-12-21T03:41:49.422Z,0
2016-12-21T03:42:29.962Z,0
2016-12-21T03:43:10.493Z,0
2016-12-21T03:43:51.026Z,0
2016-12-21T03:44:31.552Z,0
2016-12-21T03:45:12.097Z,0
2016-12-21T03:45:52.629Z,0
2016-12-21T03:46:33.168Z,0
2016-12-21T03:47:13.700Z,0
2016-12-21T03:47:54.226Z,0
2016-12-21T03:48:34.772Z,0
2016-12-21T03:49:15.309Z,0
2016-12-21T03:49:55.843Z,0
2016-12-21T03:50:36.378Z,0
2016-12-21T03:51:16.910Z,0
2016-12-21T03:51:57.444Z,0
2016-12-21T03:52:37.979Z,0
2016-12-21T03:53:18.524Z,0
2016-12-21T03:53:59.055Z,0
2016-12-21T03:54:39.578Z,0
2016-12-21T03:55:20.108Z,0
2016-12-21T03:56:00.641Z,0
2016-12-21T03:56:41.173Z,0
2016-12-21T03:57:21.705Z,0
2016-12-21T03:58:02.245Z,0
2016-12-21T03:58:42.781Z,0
2016-12-21T03:59:23.314Z,0
2016-12-21T04:00:03.856Z,0
2016-12-21T04:00:44.394Z,0
2016-12-21T04:01:24.927Z,0
2016-12-21T04:02:05.452Z,0
2016-12-21T04:02:45.988Z,0
2016-12-21T04:03:26.518Z,0
2016-12-21T04:04:07.055Z,0
2016-12-21T04:04:47.591Z,0
2016-12-21T04:05:28.129Z,0
2016-12-21T04:06:08.653Z,0
2016-12-21T04:06:49.191Z,0
2016-12-21T04:07:29.716Z,0
2016-12-21T04:08:10.241Z,0
2016-12-21T04:08:50.780Z,0
2016-12-21T04:09:31.323Z,0
2016-12-21T04:10:11.849Z,0
2016-12-21T04:10:52.387Z,0
2016-12-21T04:11:32.916Z,0
2016-12-21T04:12:13.457Z,0
2016-12-21T04:12:53.983Z,0
2016-12-21T04:13:34.517Z,0
2016-12-21T04:14:15.053Z,0
2016-12-21T04:14:55.585Z,0
2016-12-21T04:15:36.119Z,0
2016-12-21T04:16:16.662Z,0
2016-12-21T04:16:57.191Z,0
2016-12-21T04:17:37.726Z,0
2016-12-21T04:18:18.271Z,0
2016-12-21T04:18:58.801Z,0
2016-12-21T04:19:39.333Z,0
2016-12-21T04:20:19.864Z,0
2016-12-21T04:21:00.396Z,0
2016-12-21T04:21:40.940Z,0
2016-12-21T04:22:21.486Z,0
2016-12-21T04:23:02.027Z,0
2016-12-21T04:23:42.560Z,0
2016-12-21T04:24:23.067Z,0
2016-12-21T04:25:03.609Z,0
2016-12-21T04:25:44.146Z,0
2016-12-21T04:26:24.676Z,0
2016-12-21T04:27:05.201Z,0
2016-12-21T04:27:45.747Z,0
2016-12-21T04:28:26.262Z,0
2016-12-21T04:29:06.796Z,0
2016-12-21T04:29:47.325Z,0
2016-12-21T04:30:27.856Z,0
2016-12-21T04:31:08.398Z,0
2016-12-21T04:31:48.932Z,0
2016-12-21T04:32:29.464Z,0
2016-12-21T04:33:10.004Z,0
2016-12-21T04:33:50.530Z,0
2016-12-21T04:34:31.083Z,0
2016-12-21T04:35:11.603Z,0
2016-12-21T04:35:52.153Z,0
2016-12-21T04:36:32.743Z,0
2016-12-21T04:37:13.287Z,0
2016-12-21T04:37:53.822Z,0
2016-12-21T04:38:34.355Z,0
2016-12-21T04:39:14.881Z,0
2016-12-21T04:39:55.417Z,0
2016-12-21T04:40:35.949Z,0
2016-12-21T04:41:16.485Z,0
2016-12-21T04:41:57.023Z,0
2016-12-21T04:42:37.556Z,0
2016-12-21T04:43:18.103Z,0
2016-12-21T04:43:58.641Z,0
2016-12-21T04:44:39.176Z,0
2016-12-21T04:45:19.715Z,0
2016-12-21T04:46:00.255Z,0
2016-12-21T04:46:40.790Z,0
2016-12-21T04:47:21.327Z,0
2016-12-21T04:48:01.863Z,0
2016-12-21T04:48:42.405Z,0
2016-12-21T04:49:22.933Z,0
2016-12-21T04:50:03.465Z,0
2016-12-21T04:50:44.003Z,0
2016-12-21T04:51:24.543Z,0
2016-12-21T04:52:05.073Z,0
2016-12-21T04:52:45.606Z,0
2016-12-21T04:53:26.141Z,0
2016-12-21T04:54:06.678Z,0
2016-12-21T04:54:47.220Z,0
2016-12-21T04:55:27.761Z,0
2016-12-21T04:56:08.298Z,0
2016-12-21T04:56:48.827Z,0
2016-12-21T04:57:29.363Z,0
2016-12-21T04:58:09.906Z,0
2016-12-21T04:58:50.439Z,0
2016-12-21T04:59:30.977Z,0
2016-12-21T05:00:11.519Z,0
2016-12-21T05:00:52.046Z,0
2016-12-21T05:01:32.588Z,0
2016-12-21T05:02:13.125Z,0
2016-12-21T05:02:53.664Z,0
2016-12-21T05:03:34.211Z,0
2016-12-21T05:04:14.732Z,0
2016-12-21T05:04:55.270Z,0
2016-12-21T05:05:35.809Z,0
2016-12-21T05:06:16.333Z,0
2016-12-21T05:06:56.876Z,0
2016-12-21T05:07:37.408Z,0
2016-12-21T05:08:17.953Z,0
2016-12-21T05:08:58.494Z,0
2016-12-21T05:09:39.039Z,0
2016-12-21T05:10:19.571Z,0
2016-12-21T05:11:00.109Z,0
2016-12-21T05:11:40.645Z,0
2016-12-21T05:12:21.173Z,0
2016-12-21T05:13:01.710Z,0
2016-12-21T05:13:42.244Z,0
2016-12-21T05:14:22.771Z,0
2016-12-21T05:15:03.302Z,0
2016-12-21T05:15:43.825Z,0
2016-12-21T05:16:24.358Z,0
2016-12-21T05:17:04.885Z,0
2016-12-21T05:17:45.422Z,0
2016-12-21T05:18:25.950Z,0
2016-12-21T05:19:06.497Z,0
2016-12-21T05:19:47.038Z,0
2016-12-21T05:20:27.569Z,0
2016-12-21T05:21:08.109Z,0
2016-12-21T05:21:48.641Z,0
2016-12-21T05:22:29.178Z,0
2016-12-21T05:23:09.714Z,0
2016-12-21T05:23:50.246Z,0
2016-12-21T05:24:30.792Z,0
2016-12-21T05:25:11.327Z,0
2016-12-21T05:25:51.859Z,0
2016-12-21T05:26:32.411Z,0
2016-12-21T05:27:12.960Z,0
2016-12-21T05:27:53.480Z,0
2016-12-21T05:28:34.015Z,0
2016-12-21T05:29:14.547Z,0
2016-12-21T05:29:55.090Z,0
2016-12-21T05:30:35.627Z,0
2016-12-21T05:31:16.158Z,0
2016-12-21T05:31:56.710Z,0
2016-12-21T05:32:37.244Z,0
2016-12-21T05:33:17.779Z,0
2016-12-21T05:33:58.311Z,0
2016-12-21T05:34:38.845Z,0
2016-12-21T05:35:19.374Z,0
2016-12-21T05:35:59.910Z,0
2016-12-21T05:36:40.455Z,0
2016-12-21T05:37:20.987Z,0
2016-12-21T05:38:01.515Z,0
2016-12-21T05:38:42.056Z,0
2016-12-21T05:39:22.594Z,0
2016-12-21T05:40:03.128Z,0
2016-12-21T05:40:43.661Z,0
2016-12-21T05:41:24.198Z,0
2016-12-21T05:42:04.736Z,0
2016-12-21T05:42:45.274Z,0
2016-12-21T05:43:25.797Z,0
2016-12-21T05:44:06.327Z,0
2016-12-21T05:44:46.864Z,0
2016-12-21T05:45:27.400Z,0
2016-12-21T05:46:07.935Z,0
2016-12-21T05:46:48.471Z,0
2016-12-21T05:47:29.005Z,0
2016-12-21T05:48:09.537Z,0
2016-12-21T05:48:50.075Z,0
2016-12-21T05:49:30.601Z,0
2016-12-21T05:50:11.139Z,0
2016-12-21T05:50:51.684Z,0
2016-12-21T05:51:32.195Z,0
2016-12-21T05:52:12.735Z,0
2016-12-21T05:52:53.276Z,0
2016-12-21T05:53:33.811Z,0
2016-12-21T05:54:14.334Z,0
2016-12-21T05:54:54.876Z,0
2016-12-21T05:55:35.410Z,0
2016-12-21T05:56:15.939Z,0
2016-12-21T05:56:56.484Z,0
2016-12-21T05:57:37.013Z,0
2016-12-21T05:58:17.562Z,0
2016-12-21T05:58:58.093Z,0
2016-12-21T05:59:38.623Z,0
2016-12-21T06:00:19.162Z,0
2016-12-21T06:00:59.699Z,0
2016-12-21T06:01:40.221Z,0
2016-12-21T06:02:20.767Z,0
2016-12-21T06:03:01.307Z,0
2016-12-21T06:03:41.833Z,0
2016-12-21T06:04:22.369Z,0
2016-12-21T06:05:02.897Z,0
2016-12-21T06:05:43.429Z,0
2016-12-21T06:06:23.964Z,0
2016-12-21T06:07:04.523Z,0
2016-12-21T06:07:45.035Z,0
2016-12-21T06:08:25.572Z,0
2016-12-21T06:09:06.110Z,0
2016-12-21T06:09:46.642Z,0
2016-12-21T06:10:27.180Z,0
2016-12-21T06:11:07.713Z,0
2016-12-21T06:11:48.249Z,0
2016-12-21T06:12:28.785Z,0
2016-12-21T06:13:09.320Z,0
2016-12-21T06:13:49.847Z,0
2016-12-21T06:14:30.395Z,0
2016-12-21T06:15:10.929Z,0
2016-12-21T06:15:51.464Z,0
2016-12-21T06:16:32.008Z,0
2016-12-21T06:17:12.548Z,0
2016-12-21T06:17:53.081Z,0
2016-12-21T06:18:33.624Z,0
2016-12-21T06:19:14.166Z,0
2016-12-21T06:19:54.694Z,0
2016-12-21T06:20:35.225Z,0
2016-12-21T06:21:15.774Z,0
2016-12-21T06:21:56.299Z,0
2016-12-21T06:22:36.833Z,0
2016-12-21T06:23:17.372Z,0
2016-12-21T06:23:57.905Z,0
2016-12-21T06:24:38.442Z,0
2016-12-21T06:25:18.979Z,0
2016-12-21T06:25:59.509Z,0
2016-12-21T06:26:40.046Z,0
2016-12-21T06:27:20.591Z,0
2016-12-21T06:28:01.123Z,0
2016-12-21T06:28:41.654Z,0
2016-12-21T06:29:22.186Z,0
2016-12-21T06:30:02.725Z,0
2016-12-21T06:30:43.258Z,0
2016-12-21T06:31:23.787Z,0
2016-12-21T06:32:04.326Z,0
2016-12-21T06:32:44.862Z,0
2016-12-21T06:33:25.389Z,0
2016-12-21T06:34:05.935Z,0
2016-12-21T06:34:46.462Z,0
2016-12-21T06:35:27.003Z,0
2016-12-21T06:36:07.531Z,0
2016-12-21T06:36:48.074Z,0
2016-12-21T06:37:28.608Z,0
2016-12-21T06:38:09.167Z,0
2016-12-21T06:38:49.734Z,0
2016-12-21T06:39:30.275Z,0
2016-12-21T06:40:10.827Z,0
2016-12-21T06:40:51.353Z,0
2016-12-21T06:41:31.889Z,0
2016-12-21T06:42:12.411Z,0
2016-12-21T06:42:52.944Z,0
2016-12-21T06:43:33.482Z,0
2016-12-21T06:44:14.025Z,0
2016-12-21T06:44:54.580Z,0
2016-12-21T06:45:35.111Z,0
2016-12-21T06:46:15.644Z,0
2016-12-21T06:46:56.161Z,0
2016-12-21T06:47:36.695Z,0
2016-12-21T06:48:17.228Z,0
2016-12-21T06:48:57.771Z,0
2016-12-21T06:49:38.293Z,0
2016-12-21T06:50:18.840Z,0
2016-12-21T06:50:59.379Z,0
2016-12-21T06:51:39.916Z,0
2016-12-21T06:52:20.460Z,0
2016-12-21T06:53:00.992Z,0
2016-12-21T06:53:41.533Z,0
2016-12-21T06:54:22.072Z,0
2016-12-21T06:55:02.608Z,0
2016-12-21T06:55:43.137Z,0
2016-12-21T06:56:23.664Z,0
2016-12-21T06:57:04.197Z,0
2016-12-21T06:57:44.728Z,0
2016-12-21T06:58:25.258Z,0
2016-12-21T06:59:05.789Z,0
2016-12-21T06:59:46.334Z,0
2016-12-21T07:00:26.866Z,0
2016-12-21T07:01:07.395Z,0
2016-12-21T07:01:47.926Z,0
2016-12-21T07:02:28.457Z,0
2016-12-21T07:03:08.989Z,0
2016-12-21T07:03:49.513Z,0
2016-12-21T07:04:30.033Z,0
2016-12-21T07:05:10.570Z,0
2016-12-21T07:05:51.094Z,0
2016-12-21T07:06:31.639Z,0
2016-12-21T07:07:12.188Z,0
2016-12-21T07:07:52.705Z,0
2016-12-21T07:08:33.234Z,0
2016-12-21T07:09:13.766Z,0
2016-12-21T07:09:54.294Z,0
2016-12-21T07:10:34.824Z,0
2016-12-21T07:11:15.355Z,0
2016-12-21T07:11:55.896Z,0
2016-12-21T07:12:36.432Z,0
2016-12-21T07:13:16.966Z,0
2016-12-21T07:13:57.499Z,0
2016-12-21T07:14:38.029Z,0
2016-12-21T07:15:18.553Z,0
2016-12-21T07:15:59.088Z,0
2016-12-21T07:16:39.625Z,0
2016-12-21T07:17:20.167Z,0
2016-12-21T07:18:00.690Z,0
2016-12-21T07:18:41.234Z,0
2016-12-21T07:19:21.768Z,0
2016-12-21T07:20:02.301Z,0
2016-12-21T07:20:42.835Z,0
2016-12-21T07:21:23.367Z,0
2016-12-21T07:22:03.895Z,0
2016-12-21T07:22:44.414Z,0
2016-12-21T07:23:24.963Z,0
2016-12-21T07:24:05.494Z,0
2016-12-21T07:24:46.039Z,4
2016-12-21T07:25:26.568Z,4
2016-12-21T07:26:07.098Z,0
2016-12-21T07:26:47.627Z,0
2016-12-21T07:27:28.164Z,0
2016-12-21T07:28:08.694Z,0
2016-12-21T07:28:49.230Z,0
2016-12-21T07:29:29.743Z,0
2016-12-21T07:30:10.277Z,0
2016-12-21T07:30:50.819Z,0
2016-12-21T07:31:31.352Z,0
2016-12-21T07:32:11.883Z,4
2016-12-21T07:32:52.425Z,4
2016-12-21T07:33:32.967Z,4
2016-12-21T07:34:13.502Z,4
2016-12-21T07:34:54.038Z,0
2016-12-21T07:35:34.572Z,0
2016-12-21T07:36:15.105Z,0
2016-12-21T07:36:55.638Z,0
2016-12-21T07:37:36.168Z,0
2016-12-21T07:38:16.692Z,0
2016-12-21T07:38:57.228Z,0
2016-12-21T07:39:37.755Z,4
2016-12-21T07:40:18.281Z,4
2016-12-21T07:40:58.820Z,4
2016-12-21T07:41:39.358Z,4
2016-12-21T07:42:19.888Z,4
2016-12-21T07:43:00.425Z,4
2016-12-21T07:43:40.964Z,4
2016-12-21T07:44:21.538Z,4
2016-12-21T07:45:02.075Z,4
2016-12-21T07:45:42.578Z,4
2016-12-21T07:46:23.117Z,4
2016-12-21T07:47:03.654Z,4
2016-12-21T07:47:44.191Z,4
2016-12-21T07:48:24.720Z,4
2016-12-21T07:49:05.248Z,4
2016-12-21T07:49:45.782Z,4
2016-12-21T07:50:26.324Z,4
2016-12-21T07:51:06.858Z,4
2016-12-21T07:51:47.389Z,4
2016-12-21T07:52:27.915Z,8
2016-12-21T07:53:08.462Z,8
2016-12-21T07:53:48.985Z,4
2016-12-21T07:54:29.499Z,4
2016-12-21T07:55:10.042Z,4
2016-12-21T07:55:50.581Z,4
2016-12-21T07:56:31.115Z,8
2016-12-21T07:57:11.653Z,8
2016-12-21T07:57:52.201Z,8
2016-12-21T07:58:32.732Z,8
2016-12-21T07:59:13.269Z,8
2016-12-21T07:59:53.797Z,8
2016-12-21T08:00:34.334Z,8
2016-12-21T08:01:14.865Z,8
2016-12-21T08:01:55.398Z,8
2016-12-21T08:02:35.919Z,8
2016-12-21T08:03:16.458Z,8
2016-12-21T08:03:56.992Z,8
2016-12-21T08:04:37.571Z,4
2016-12-21T08:06:54.779Z,608
2016-12-21T08:07:35.300Z,624
2016-12-21T08:08:15.829Z,640
2016-12-21T08:08:56.355Z,668
2016-12-21T08:09:36.900Z,692
2016-12-21T08:10:17.446Z,728
2016-12-21T08:10:57.961Z,768
2016-12-21T08:11:38.502Z,816
2016-12-21T08:12:19.026Z,864
2016-12-21T08:12:59.558Z,912
2016-12-21T08:13:40.081Z,956
2016-12-21T08:14:20.610Z,996
2016-12-21T08:15:01.153Z,1032
2016-12-21T08:15:41.678Z,1064
2016-12-21T08:16:22.198Z,1092
2016-12-21T08:17:02.744Z,1132
2016-12-21T08:17:43.274Z,1172
2016-12-21T08:18:23.814Z,1208
2016-12-21T08:19:04.336Z,1236
2016-12-21T08:19:44.864Z,1260
2016-12-21T08:20:25.396Z,1296
2016-12-21T08:21:05.912Z,1312
2016-12-21T08:21:46.451Z,1336
2016-12-21T08:22:26.974Z,1352
2016-12-21T08:23:07.493Z,1372
2016-12-21T08:23:48.035Z,1392
2016-12-21T08:24:28.572Z,1412
2016-12-21T08:25:09.084Z,1428
2016-12-21T08:25:49.609Z,1432
2016-12-21T08:26:30.150Z,1436
2016-12-21T08:27:10.682Z,1444
2016-12-21T08:27:51.211Z,1444
2016-12-21T08:28:31.760Z,1444
2016-12-21T08:29:12.290Z,1444
2016-12-21T08:29:52.825Z,1436
2016-12-21T08:30:33.352Z,1424
2016-12-21T08:31:13.880Z,1412
2016-12-21T08:31:54.395Z,1392
2016-12-21T08:32:34.933Z,1384
2016-12-21T08:33:15.443Z,1380
2016-12-21T08:33:55.985Z,1388
2016-12-21T08:34:36.506Z,1392
2016-12-21T08:35:17.029Z,1408
2016-12-21T08:35:57.563Z,1436
2016-12-21T08:36:38.258Z,1472
2016-12-21T08:37:19.138Z,1500
2016-12-21T08:37:59.818Z,1500
2016-12-21T08:38:41.090Z,1476
2016-12-21T08:39:22.186Z,1396
2016-12-21T08:40:03.194Z,1312
2016-12-21T08:40:44.443Z,1244
2016-12-21T08:41:25.319Z,1212
2016-12-21T08:42:06.207Z,1200
2016-12-21T08:42:46.942Z,1208
2016-12-21T08:43:27.566Z,1208
2016-12-21T08:44:08.117Z,1208
2016-12-21T08:44:48.836Z,1204
2016-12-21T08:45:29.438Z,1196
2016-12-21T08:46:10.117Z,1192
2016-12-21T08:46:50.702Z,1184
2016-12-21T08:47:31.267Z,1176
2016-12-21T08:48:12.032Z,1176
2016-12-21T08:48:52.672Z,1188
2016-12-21T08:49:33.320Z,1208
2016-12-21T08:50:13.944Z,1240
2016-12-21T08:50:54.627Z,1260
2016-12-21T08:51:35.191Z,1264
2016-12-21T08:52:15.705Z,1268
2016-12-21T08:52:56.232Z,1284
2016-12-21T08:53:36.766Z,1312
2016-12-21T08:54:17.341Z,1308
2016-12-21T08:54:57.901Z,1288
2016-12-21T08:55:38.441Z,1272
2016-12-21T08:56:18.950Z,1264
2016-12-21T08:56:59.475Z,1260
2016-12-21T08:57:40.019Z,1272
2016-12-21T08:58:20.543Z,1276
2016-12-21T08:59:01.074Z,1300
2016-12-21T08:59:41.614Z,1316
2016-12-21T09:00:22.137Z,1324
2016-12-21T09:01:02.675Z,1332
2016-12-21T09:01:43.200Z,1344
2016-12-21T09:02:23.705Z,1332
2016-12-21T09:03:04.237Z,1332
2016-12-21T09:03:44.767Z,1352
2016-12-21T09:04:25.282Z,1376
2016-12-21T09:05:05.814Z,1388
2016-12-21T09:05:46.346Z,1384
2016-12-21T09:06:26.875Z,1392
2016-12-21T09:07:07.402Z,1416
2016-12-21T09:07:47.931Z,1436
2016-12-21T09:08:28.454Z,1432
2016-12-21T09:09:08.980Z,1436
2016-12-21T09:09:49.502Z,1436
2016-12-21T09:10:30.036Z,1436
2016-12-21T09:11:10.566Z,1440
2016-12-21T09:11:51.094Z,1444
2016-12-21T09:12:31.615Z,1448
2016-12-21T09:13:12.124Z,1464
2016-12-21T09:13:52.654Z,1480
2016-12-21T09:14:33.178Z,1516
2016-12-21T09:15:13.711Z,1564
2016-12-21T09:15:54.249Z,1604
2016-12-21T09:16:34.780Z,1636
2016-12-21T09:17:15.288Z,1640
2016-12-21T09:17:55.805Z,1620
2016-12-21T09:18:36.348Z,1556
2016-12-21T09:19:16.868Z,1480
2016-12-21T09:19:57.407Z,1436
2016-12-21T09:20:37.950Z,1424
2016-12-21T09:21:18.474Z,1412
2016-12-21T09:21:58.999Z,1408
2016-12-21T09:22:39.510Z,1412
2016-12-21T09:23:20.050Z,1420
2016-12-21T09:24:00.574Z,1432
2016-12-21T09:24:41.117Z,1444
2016-12-21T09:25:21.628Z,1464
2016-12-21T09:26:02.153Z,1492
2016-12-21T09:26:42.669Z,1528
2016-12-21T09:27:23.206Z,1576
2016-12-21T09:28:03.728Z,1640
2016-12-21T09:28:44.251Z,1732
2016-12-21T09:29:24.771Z,1816
2016-12-21T09:30:05.305Z,1880
2016-12-21T09:30:45.839Z,1904
2016-12-21T09:31:26.370Z,1884
2016-12-21T09:32:06.898Z,1884
2016-12-21T09:32:47.430Z,1920
2016-12-21T09:33:27.962Z,1924
2016-12-21T09:34:08.480Z,1916
2016-12-21T09:34:49.017Z,1908
2016-12-21T09:35:29.555Z,1936
2016-12-21T09:36:10.088Z,1976
2016-12-21T09:36:50.593Z,2044
2016-12-21T09:37:31.112Z,2184
2016-12-21T09:38:11.640Z,2432
2016-12-21T09:38:52.162Z,2712
2016-12-21T09:39:32.684Z,2968
2016-12-21T09:40:13.213Z,3096
2016-12-21T09:40:53.746Z,3136
2016-12-21T09:41:34.274Z,3160
2016-12-21T09:42:14.792Z,3152
2016-12-21T09:42:55.316Z,3132
2016-12-21T09:43:35.857Z,3184
2016-12-21T09:44:16.378Z,3220
2016-12-21T09:44:56.908Z,3228
2016-12-21T09:45:37.442Z,3252
2016-12-21T09:46:17.973Z,3240
2016-12-21T09:46:58.503Z,3268
2016-12-21T09:47:39.024Z,3348
2016-12-21T09:48:19.553Z,3476
2016-12-21T09:49:00.080Z,3588
2016-12-21T09:49:40.627Z,3672